Terminal Aerodrome Forecast
Issued by NWS

Home | Current Version | Previous Version | Text Only | Print | Product List | Glossary On
Versions: 1 2 3 4 5 6 7 8 9 10 11 12 13 14 15 16 17 18 19 20 21
000
FTUS41 KCLE 281132
TAFFDY
TAF
KFDY 281132Z 2812/2912 04005KT P6SM FEW250
     FM281700 08008KT P6SM SCT040
     FM290000 08007KT P6SM FEW060
     FM290800 12003KT 6SM BR BKN060=

USA.gov is the U.S. government's official web portal to all federal, state and local government web resources and services.